<?xml version="1.0" encoding="UTF-8" standalone="no" ?>
<gpx xmlns="http://www.topografix.com/GPX/1/1" xmlns:xsi="http://www.w3.org/2001/XMLSchema-instance" xsi:schemaLocation="http://www.topografix.com/GPX/1/1 http://www.topografix.com/GPX/1/1/gpx.xsd" version="1.1" creator="VisuGPX - https://www.visugpx.com">
  <metadata>
    <name>Du Champ du Guet au Château de Passy</name>
    <desc><![CDATA[prépa séjour]]></desc>
  </metadata>
  <wpt lat="48.08568" lon="3.29293">
    <ele>69</ele>
    <name><![CDATA[Parking de l'écluse]]></name>
  </wpt>
  <wpt lat="48.08438" lon="3.2993">
    <ele>77</ele>
    <name><![CDATA[Rue de la Cornillate]]></name>
  </wpt>
  <wpt lat="48.08802" lon="3.30032">
    <ele>76</ele>
    <name><![CDATA[Croisement]]></name>
  </wpt>
  <wpt lat="48.08764" lon="3.3035">
    <ele>104</ele>
    <name><![CDATA[Bois de Saint-Martin]]></name>
  </wpt>
  <wpt lat="48.08624" lon="3.31979">
    <ele>170</ele>
    <name><![CDATA[Carrefour]]></name>
  </wpt>
  <wpt lat="48.08555" lon="3.34297">
    <ele>176</ele>
    <name><![CDATA[Flandres]]></name>
  </wpt>
  <wpt lat="48.09503" lon="3.34686">
    <ele>98</ele>
    <name><![CDATA[Poursuite sur la Route des Bordes en face]]></name>
  </wpt>
  <wpt lat="48.09773" lon="3.34703">
    <ele>99</ele>
    <name><![CDATA[Départ de chemin en herbe]]></name>
  </wpt>
  <wpt lat="48.10416" lon="3.34734">
    <ele>183</ele>
    <name><![CDATA[Bifurcation vers le hameau de Vaufoin]]></name>
  </wpt>
  <wpt lat="48.10534" lon="3.34859">
    <ele>176</ele>
    <name><![CDATA[Vaufoin]]></name>
  </wpt>
  <wpt lat="48.11103" lon="3.34837">
    <ele>193</ele>
    <name><![CDATA[Croisement en T]]></name>
  </wpt>
  <wpt lat="48.11138" lon="3.33804">
    <ele>186</ele>
    <name><![CDATA[Bifurcation direction La Grange au Doyen]]></name>
  </wpt>
  <wpt lat="48.11602" lon="3.31018">
    <ele>92</ele>
    <name><![CDATA[Bifurcation vers mur du château de Passy]]></name>
  </wpt>
  <wpt lat="48.11004" lon="3.31113">
    <ele>123</ele>
    <name><![CDATA[Bifurcation vers lieu-dit Les Beauregards]]></name>
  </wpt>
  <wpt lat="48.10662" lon="3.31097">
    <ele>160</ele>
    <name><![CDATA[Bifurcation après bouquet de chênes]]></name>
  </wpt>
  <wpt lat="48.1043" lon="3.30947">
    <ele>165</ele>
    <name><![CDATA[Bifurcation après aqueduc souterrain de Cochepies]]></name>
  </wpt>
  <wpt lat="48.09445" lon="3.30575">
    <ele>80</ele>
    <name><![CDATA[Croisement en T]]></name>
  </wpt>
  <wpt lat="48.08914" lon="3.30194">
    <ele>76</ele>
    <name><![CDATA[Bifurcation vers le pont  de la D606]]></name>
  </wpt>
  <wpt lat="48.08568" lon="3.29294">
    <ele>69</ele>
    <name><![CDATA[Parking de l'écluse]]></name>
  </wpt>
  <trk>
    <name><![CDATA[Du Champ du Guet au Château de Passy]]></name>
    <trkseg>
      <trkpt lat="48.08568" lon="3.29293">
        <ele>69</ele>
        <time>2020-10-03T09:24:25+02:00</time>
      </trkpt>
      <trkpt lat="48.08577" lon="3.29322">
        <ele>70</ele>
        <time>2020-10-03T09:24:30+02:00</time>
      </trkpt>
      <trkpt lat="48.08574" lon="3.2935">
        <ele>71</ele>
        <time>2020-10-03T09:24:35+02:00</time>
      </trkpt>
      <trkpt lat="48.0857" lon="3.29393">
        <ele>73</ele>
        <time>2020-10-03T09:24:40+02:00</time>
      </trkpt>
      <trkpt lat="48.08566" lon="3.29431">
        <ele>74</ele>
        <time>2020-10-03T09:24:45+02:00</time>
      </trkpt>
      <trkpt lat="48.08562" lon="3.29477">
        <ele>73</ele>
        <time>2020-10-03T09:24:50+02:00</time>
      </trkpt>
      <trkpt lat="48.08558" lon="3.2952">
        <ele>73</ele>
        <time>2020-10-03T09:24:55+02:00</time>
      </trkpt>
      <trkpt lat="48.08548" lon="3.2952">
        <ele>73</ele>
        <time>2020-10-03T09:25:00+02:00</time>
      </trkpt>
      <trkpt lat="48.08547" lon="3.29558">
        <ele>73</ele>
        <time>2020-10-03T09:25:05+02:00</time>
      </trkpt>
      <trkpt lat="48.08542" lon="3.29612">
        <ele>74</ele>
        <time>2020-10-03T09:25:10+02:00</time>
      </trkpt>
      <trkpt lat="48.0854" lon="3.29648">
        <ele>75</ele>
        <time>2020-10-03T09:25:15+02:00</time>
      </trkpt>
      <trkpt lat="48.08539" lon="3.29679">
        <ele>76</ele>
        <time>2020-10-03T09:25:20+02:00</time>
      </trkpt>
      <trkpt lat="48.08532" lon="3.2971">
        <ele>76</ele>
        <time>2020-10-03T09:25:25+02:00</time>
      </trkpt>
      <trkpt lat="48.08524" lon="3.29742">
        <ele>76</ele>
        <time>2020-10-03T09:25:30+02:00</time>
      </trkpt>
      <trkpt lat="48.08504" lon="3.29811">
        <ele>77</ele>
        <time>2020-10-03T09:25:35+02:00</time>
      </trkpt>
      <trkpt lat="48.08491" lon="3.29862">
        <ele>77</ele>
        <time>2020-10-03T09:25:40+02:00</time>
      </trkpt>
      <trkpt lat="48.08482" lon="3.29882">
        <ele>77</ele>
        <time>2020-10-03T09:25:45+02:00</time>
      </trkpt>
      <trkpt lat="48.08466" lon="3.29894">
        <ele>77</ele>
        <time>2020-10-03T09:25:50+02:00</time>
      </trkpt>
      <trkpt lat="48.0846" lon="3.29896">
        <ele>77</ele>
        <time>2020-10-03T09:25:55+02:00</time>
      </trkpt>
      <trkpt lat="48.08454" lon="3.29919">
        <ele>77</ele>
        <time>2020-10-03T09:26:00+02:00</time>
      </trkpt>
      <trkpt lat="48.08438" lon="3.2993">
        <ele>77</ele>
        <time>2020-10-03T09:26:05+02:00</time>
      </trkpt>
      <trkpt lat="48.08448" lon="3.29941">
        <ele>78</ele>
        <time>2020-10-03T09:26:10+02:00</time>
      </trkpt>
      <trkpt lat="48.08475" lon="3.29958">
        <ele>79</ele>
        <time>2020-10-03T09:26:15+02:00</time>
      </trkpt>
      <trkpt lat="48.08499" lon="3.29971">
        <ele>79</ele>
        <time>2020-10-03T09:26:20+02:00</time>
      </trkpt>
      <trkpt lat="48.08535" lon="3.29986">
        <ele>80</ele>
        <time>2020-10-03T09:26:25+02:00</time>
      </trkpt>
      <trkpt lat="48.08546" lon="3.29993">
        <ele>80</ele>
        <time>2020-10-03T09:26:30+02:00</time>
      </trkpt>
      <trkpt lat="48.08559" lon="3.29998">
        <ele>81</ele>
        <time>2020-10-03T09:26:35+02:00</time>
      </trkpt>
      <trkpt lat="48.08582" lon="3.30009">
        <ele>81</ele>
        <time>2020-10-03T09:26:40+02:00</time>
      </trkpt>
      <trkpt lat="48.08589" lon="3.29975">
        <ele>80</ele>
        <time>2020-10-03T09:26:45+02:00</time>
      </trkpt>
      <trkpt lat="48.08598" lon="3.29927">
        <ele>79</ele>
        <time>2020-10-03T09:26:50+02:00</time>
      </trkpt>
      <trkpt lat="48.08602" lon="3.299">
        <ele>79</ele>
        <time>2020-10-03T09:26:55+02:00</time>
      </trkpt>
      <trkpt lat="48.08609" lon="3.29853">
        <ele>79</ele>
        <time>2020-10-03T09:27:00+02:00</time>
      </trkpt>
      <trkpt lat="48.08614" lon="3.2983">
        <ele>78</ele>
        <time>2020-10-03T09:27:05+02:00</time>
      </trkpt>
      <trkpt lat="48.08623" lon="3.29841">
        <ele>78</ele>
        <time>2020-10-03T09:27:10+02:00</time>
      </trkpt>
      <trkpt lat="48.08639" lon="3.2986">
        <ele>77</ele>
        <time>2020-10-03T09:27:15+02:00</time>
      </trkpt>
      <trkpt lat="48.08665" lon="3.29878">
        <ele>77</ele>
        <time>2020-10-03T09:27:20+02:00</time>
      </trkpt>
      <trkpt lat="48.08692" lon="3.29901">
        <ele>76</ele>
        <time>2020-10-03T09:27:25+02:00</time>
      </trkpt>
      <trkpt lat="48.0871" lon="3.29917">
        <ele>76</ele>
        <time>2020-10-03T09:27:30+02:00</time>
      </trkpt>
      <trkpt lat="48.08724" lon="3.2993">
        <ele>76</ele>
        <time>2020-10-03T09:27:35+02:00</time>
      </trkpt>
      <trkpt lat="48.08739" lon="3.29946">
        <ele>76</ele>
        <time>2020-10-03T09:27:40+02:00</time>
      </trkpt>
      <trkpt lat="48.08778" lon="3.29998">
        <ele>75</ele>
        <time>2020-10-03T09:27:45+02:00</time>
      </trkpt>
      <trkpt lat="48.08793" lon="3.30022">
        <ele>76</ele>
        <time>2020-10-03T09:27:50+02:00</time>
      </trkpt>
      <trkpt lat="48.08802" lon="3.30032">
        <ele>76</ele>
        <time>2020-10-03T09:27:55+02:00</time>
      </trkpt>
      <trkpt lat="48.08783" lon="3.3005">
        <ele>77</ele>
        <time>2020-10-03T09:28:00+02:00</time>
      </trkpt>
      <trkpt lat="48.08761" lon="3.30069">
        <ele>79</ele>
        <time>2020-10-03T09:28:05+02:00</time>
      </trkpt>
      <trkpt lat="48.08734" lon="3.30093">
        <ele>81</ele>
        <time>2020-10-03T09:28:10+02:00</time>
      </trkpt>
      <trkpt lat="48.08715" lon="3.3011">
        <ele>83</ele>
        <time>2020-10-03T09:28:15+02:00</time>
      </trkpt>
      <trkpt lat="48.08698" lon="3.30125">
        <ele>85</ele>
        <time>2020-10-03T09:28:20+02:00</time>
      </trkpt>
      <trkpt lat="48.08678" lon="3.30143">
        <ele>87</ele>
        <time>2020-10-03T09:28:25+02:00</time>
      </trkpt>
      <trkpt lat="48.0868" lon="3.30153">
        <ele>87</ele>
        <time>2020-10-03T09:28:30+02:00</time>
      </trkpt>
      <trkpt lat="48.08677" lon="3.30175">
        <ele>89</ele>
        <time>2020-10-03T09:28:35+02:00</time>
      </trkpt>
      <trkpt lat="48.08673" lon="3.30203">
        <ele>92</ele>
        <time>2020-10-03T09:28:40+02:00</time>
      </trkpt>
      <trkpt lat="48.08669" lon="3.30235">
        <ele>95</ele>
        <time>2020-10-03T09:28:45+02:00</time>
      </trkpt>
      <trkpt lat="48.08664" lon="3.30266">
        <ele>99</ele>
        <time>2020-10-03T09:28:50+02:00</time>
      </trkpt>
      <trkpt lat="48.08663" lon="3.30279">
        <ele>100</ele>
        <time>2020-10-03T09:28:55+02:00</time>
      </trkpt>
      <trkpt lat="48.08667" lon="3.30287">
        <ele>101</ele>
        <time>2020-10-03T09:29:00+02:00</time>
      </trkpt>
      <trkpt lat="48.08679" lon="3.30293">
        <ele>101</ele>
        <time>2020-10-03T09:29:05+02:00</time>
      </trkpt>
      <trkpt lat="48.08702" lon="3.30306">
        <ele>101</ele>
        <time>2020-10-03T09:29:10+02:00</time>
      </trkpt>
      <trkpt lat="48.08727" lon="3.30319">
        <ele>102</ele>
        <time>2020-10-03T09:29:15+02:00</time>
      </trkpt>
      <trkpt lat="48.08753" lon="3.30336">
        <ele>103</ele>
        <time>2020-10-03T09:29:20+02:00</time>
      </trkpt>
      <trkpt lat="48.08764" lon="3.3035">
        <ele>104</ele>
        <time>2020-10-03T09:29:25+02:00</time>
      </trkpt>
      <trkpt lat="48.08784" lon="3.30384">
        <ele>106</ele>
        <time>2020-10-03T09:29:30+02:00</time>
      </trkpt>
      <trkpt lat="48.08801" lon="3.30423">
        <ele>109</ele>
        <time>2020-10-03T09:29:35+02:00</time>
      </trkpt>
      <trkpt lat="48.08815" lon="3.30449">
        <ele>111</ele>
        <time>2020-10-03T09:29:40+02:00</time>
      </trkpt>
      <trkpt lat="48.08825" lon="3.30463">
        <ele>112</ele>
        <time>2020-10-03T09:29:45+02:00</time>
      </trkpt>
      <trkpt lat="48.08834" lon="3.30477">
        <ele>112</ele>
        <time>2020-10-03T09:29:50+02:00</time>
      </trkpt>
      <trkpt lat="48.08842" lon="3.30492">
        <ele>113</ele>
        <time>2020-10-03T09:29:55+02:00</time>
      </trkpt>
      <trkpt lat="48.08852" lon="3.30507">
        <ele>113</ele>
        <time>2020-10-03T09:30:00+02:00</time>
      </trkpt>
      <trkpt lat="48.08862" lon="3.30525">
        <ele>113</ele>
        <time>2020-10-03T09:30:05+02:00</time>
      </trkpt>
      <trkpt lat="48.08872" lon="3.30548">
        <ele>114</ele>
        <time>2020-10-03T09:30:10+02:00</time>
      </trkpt>
      <trkpt lat="48.08878" lon="3.30563">
        <ele>115</ele>
        <time>2020-10-03T09:30:15+02:00</time>
      </trkpt>
      <trkpt lat="48.08884" lon="3.30583">
        <ele>117</ele>
        <time>2020-10-03T09:30:20+02:00</time>
      </trkpt>
      <trkpt lat="48.08888" lon="3.30604">
        <ele>118</ele>
        <time>2020-10-03T09:30:25+02:00</time>
      </trkpt>
      <trkpt lat="48.08891" lon="3.30627">
        <ele>119</ele>
        <time>2020-10-03T09:30:30+02:00</time>
      </trkpt>
      <trkpt lat="48.08895" lon="3.30654">
        <ele>120</ele>
        <time>2020-10-03T09:30:35+02:00</time>
      </trkpt>
      <trkpt lat="48.08898" lon="3.30679">
        <ele>121</ele>
        <time>2020-10-03T09:30:40+02:00</time>
      </trkpt>
      <trkpt lat="48.08903" lon="3.30705">
        <ele>121</ele>
        <time>2020-10-03T09:30:45+02:00</time>
      </trkpt>
      <trkpt lat="48.08909" lon="3.30733">
        <ele>121</ele>
        <time>2020-10-03T09:30:50+02:00</time>
      </trkpt>
      <trkpt lat="48.08917" lon="3.30766">
        <ele>121</ele>
        <time>2020-10-03T09:30:55+02:00</time>
      </trkpt>
      <trkpt lat="48.08921" lon="3.30801">
        <ele>122</ele>
        <time>2020-10-03T09:31:00+02:00</time>
      </trkpt>
      <trkpt lat="48.08924" lon="3.30832">
        <ele>122</ele>
        <time>2020-10-03T09:31:05+02:00</time>
      </trkpt>
      <trkpt lat="48.08925" lon="3.30859">
        <ele>123</ele>
        <time>2020-10-03T09:31:10+02:00</time>
      </trkpt>
      <trkpt lat="48.08927" lon="3.30901">
        <ele>124</ele>
        <time>2020-10-03T09:31:15+02:00</time>
      </trkpt>
      <trkpt lat="48.0893" lon="3.30943">
        <ele>124</ele>
        <time>2020-10-03T09:31:20+02:00</time>
      </trkpt>
      <trkpt lat="48.08933" lon="3.30993">
        <ele>124</ele>
        <time>2020-10-03T09:31:25+02:00</time>
      </trkpt>
      <trkpt lat="48.08936" lon="3.31044">
        <ele>125</ele>
        <time>2020-10-03T09:31:30+02:00</time>
      </trkpt>
      <trkpt lat="48.08939" lon="3.31094">
        <ele>126</ele>
        <time>2020-10-03T09:31:35+02:00</time>
      </trkpt>
      <trkpt lat="48.08944" lon="3.3114">
        <ele>126</ele>
        <time>2020-10-03T09:31:40+02:00</time>
      </trkpt>
      <trkpt lat="48.08948" lon="3.31186">
        <ele>128</ele>
        <time>2020-10-03T09:31:45+02:00</time>
      </trkpt>
      <trkpt lat="48.08953" lon="3.31232">
        <ele>129</ele>
        <time>2020-10-03T09:31:50+02:00</time>
      </trkpt>
      <trkpt lat="48.08954" lon="3.31271">
        <ele>130</ele>
        <time>2020-10-03T09:31:55+02:00</time>
      </trkpt>
      <trkpt lat="48.08958" lon="3.31317">
        <ele>130</ele>
        <time>2020-10-03T09:32:00+02:00</time>
      </trkpt>
      <trkpt lat="48.08959" lon="3.31349">
        <ele>130</ele>
        <time>2020-10-03T09:32:05+02:00</time>
      </trkpt>
      <trkpt lat="48.08961" lon="3.31379">
        <ele>131</ele>
        <time>2020-10-03T09:32:10+02:00</time>
      </trkpt>
      <trkpt lat="48.08967" lon="3.31419">
        <ele>132</ele>
        <time>2020-10-03T09:32:15+02:00</time>
      </trkpt>
      <trkpt lat="48.08974" lon="3.3144">
        <ele>130</ele>
        <time>2020-10-03T09:32:20+02:00</time>
      </trkpt>
      <trkpt lat="48.08981" lon="3.31467">
        <ele>128</ele>
        <time>2020-10-03T09:32:25+02:00</time>
      </trkpt>
      <trkpt lat="48.08984" lon="3.31487">
        <ele>127</ele>
        <time>2020-10-03T09:32:30+02:00</time>
      </trkpt>
      <trkpt lat="48.08988" lon="3.31511">
        <ele>126</ele>
        <time>2020-10-03T09:32:35+02:00</time>
      </trkpt>
      <trkpt lat="48.08988" lon="3.31521">
        <ele>126</ele>
        <time>2020-10-03T09:32:40+02:00</time>
      </trkpt>
      <trkpt lat="48.08986" lon="3.31556">
        <ele>128</ele>
        <time>2020-10-03T09:32:45+02:00</time>
      </trkpt>
      <trkpt lat="48.08983" lon="3.31581">
        <ele>130</ele>
        <time>2020-10-03T09:32:50+02:00</time>
      </trkpt>
      <trkpt lat="48.0898" lon="3.31607">
        <ele>133</ele>
        <time>2020-10-03T09:32:55+02:00</time>
      </trkpt>
      <trkpt lat="48.08977" lon="3.3162">
        <ele>134</ele>
        <time>2020-10-03T09:33:00+02:00</time>
      </trkpt>
      <trkpt lat="48.08972" lon="3.3164">
        <ele>137</ele>
        <time>2020-10-03T09:33:05+02:00</time>
      </trkpt>
      <trkpt lat="48.08965" lon="3.31661">
        <ele>140</ele>
        <time>2020-10-03T09:33:10+02:00</time>
      </trkpt>
      <trkpt lat="48.08958" lon="3.31683">
        <ele>144</ele>
        <time>2020-10-03T09:33:15+02:00</time>
      </trkpt>
      <trkpt lat="48.08954" lon="3.31693">
        <ele>145</ele>
        <time>2020-10-03T09:33:20+02:00</time>
      </trkpt>
      <trkpt lat="48.08949" lon="3.31734">
        <ele>149</ele>
        <time>2020-10-03T09:33:25+02:00</time>
      </trkpt>
      <trkpt lat="48.08945" lon="3.31764">
        <ele>151</ele>
        <time>2020-10-03T09:33:30+02:00</time>
      </trkpt>
      <trkpt lat="48.08942" lon="3.31788">
        <ele>153</ele>
        <time>2020-10-03T09:33:35+02:00</time>
      </trkpt>
      <trkpt lat="48.08939" lon="3.31812">
        <ele>154</ele>
        <time>2020-10-03T09:33:40+02:00</time>
      </trkpt>
      <trkpt lat="48.08936" lon="3.3182">
        <ele>155</ele>
        <time>2020-10-03T09:33:45+02:00</time>
      </trkpt>
      <trkpt lat="48.08933" lon="3.31834">
        <ele>156</ele>
        <time>2020-10-03T09:33:50+02:00</time>
      </trkpt>
      <trkpt lat="48.08925" lon="3.31866">
        <ele>159</ele>
        <time>2020-10-03T09:33:55+02:00</time>
      </trkpt>
      <trkpt lat="48.08915" lon="3.31901">
        <ele>163</ele>
        <time>2020-10-03T09:34:00+02:00</time>
      </trkpt>
      <trkpt lat="48.08906" lon="3.31938">
        <ele>165</ele>
        <time>2020-10-03T09:34:05+02:00</time>
      </trkpt>
      <trkpt lat="48.089" lon="3.31945">
        <ele>166</ele>
        <time>2020-10-03T09:34:10+02:00</time>
      </trkpt>
      <trkpt lat="48.08883" lon="3.31945">
        <ele>168</ele>
        <time>2020-10-03T09:34:15+02:00</time>
      </trkpt>
      <trkpt lat="48.08868" lon="3.31915">
        <ele>170</ele>
        <time>2020-10-03T09:34:20+02:00</time>
      </trkpt>
      <trkpt lat="48.08863" lon="3.31904">
        <ele>170</ele>
        <time>2020-10-03T09:34:25+02:00</time>
      </trkpt>
      <trkpt lat="48.08853" lon="3.31892">
        <ele>171</ele>
        <time>2020-10-03T09:34:30+02:00</time>
      </trkpt>
      <trkpt lat="48.08837" lon="3.31872">
        <ele>173</ele>
        <time>2020-10-03T09:34:35+02:00</time>
      </trkpt>
      <trkpt lat="48.08822" lon="3.31851">
        <ele>173</ele>
        <time>2020-10-03T09:34:40+02:00</time>
      </trkpt>
      <trkpt lat="48.08808" lon="3.31841">
        <ele>172</ele>
        <time>2020-10-03T09:34:45+02:00</time>
      </trkpt>
      <trkpt lat="48.08797" lon="3.31834">
        <ele>172</ele>
        <time>2020-10-03T09:34:50+02:00</time>
      </trkpt>
      <trkpt lat="48.08782" lon="3.31833">
        <ele>172</ele>
        <time>2020-10-03T09:34:55+02:00</time>
      </trkpt>
      <trkpt lat="48.0876" lon="3.31834">
        <ele>172</ele>
        <time>2020-10-03T09:35:00+02:00</time>
      </trkpt>
      <trkpt lat="48.08736" lon="3.31832">
        <ele>171</ele>
        <time>2020-10-03T09:35:05+02:00</time>
      </trkpt>
      <trkpt lat="48.08713" lon="3.31832">
        <ele>169</ele>
        <time>2020-10-03T09:35:10+02:00</time>
      </trkpt>
      <trkpt lat="48.08692" lon="3.31832">
        <ele>168</ele>
        <time>2020-10-03T09:35:15+02:00</time>
      </trkpt>
      <trkpt lat="48.08681" lon="3.31834">
        <ele>167</ele>
        <time>2020-10-03T09:35:20+02:00</time>
      </trkpt>
      <trkpt lat="48.08672" lon="3.31837">
        <ele>167</ele>
        <time>2020-10-03T09:35:25+02:00</time>
      </trkpt>
      <trkpt lat="48.08668" lon="3.31872">
        <ele>168</ele>
        <time>2020-10-03T09:35:30+02:00</time>
      </trkpt>
      <trkpt lat="48.08662" lon="3.31906">
        <ele>169</ele>
        <time>2020-10-03T09:35:35+02:00</time>
      </trkpt>
      <trkpt lat="48.08644" lon="3.31948">
        <ele>169</ele>
        <time>2020-10-03T09:35:40+02:00</time>
      </trkpt>
      <trkpt lat="48.08636" lon="3.31967">
        <ele>170</ele>
        <time>2020-10-03T09:35:45+02:00</time>
      </trkpt>
      <trkpt lat="48.08624" lon="3.31979">
        <ele>170</ele>
        <time>2020-10-03T09:35:50+02:00</time>
      </trkpt>
      <trkpt lat="48.08623" lon="3.31984">
        <ele>170</ele>
        <time>2020-10-03T09:35:55+02:00</time>
      </trkpt>
      <trkpt lat="48.08621" lon="3.32026">
        <ele>172</ele>
        <time>2020-10-03T09:36:00+02:00</time>
      </trkpt>
      <trkpt lat="48.08615" lon="3.32137">
        <ele>177</ele>
        <time>2020-10-03T09:36:05+02:00</time>
      </trkpt>
      <trkpt lat="48.08612" lon="3.32176">
        <ele>178</ele>
        <time>2020-10-03T09:36:10+02:00</time>
      </trkpt>
      <trkpt lat="48.08608" lon="3.32201">
        <ele>178</ele>
        <time>2020-10-03T09:36:15+02:00</time>
      </trkpt>
      <trkpt lat="48.08601" lon="3.3223">
        <ele>179</ele>
        <time>2020-10-03T09:36:20+02:00</time>
      </trkpt>
      <trkpt lat="48.08591" lon="3.32262">
        <ele>179</ele>
        <time>2020-10-03T09:36:25+02:00</time>
      </trkpt>
      <trkpt lat="48.08579" lon="3.32302">
        <ele>179</ele>
        <time>2020-10-03T09:36:30+02:00</time>
      </trkpt>
      <trkpt lat="48.0857" lon="3.32337">
        <ele>179</ele>
        <time>2020-10-03T09:36:35+02:00</time>
      </trkpt>
      <trkpt lat="48.08562" lon="3.32367">
        <ele>178</ele>
        <time>2020-10-03T09:36:40+02:00</time>
      </trkpt>
      <trkpt lat="48.08558" lon="3.32395">
        <ele>177</ele>
        <time>2020-10-03T09:36:45+02:00</time>
      </trkpt>
      <trkpt lat="48.08556" lon="3.32422">
        <ele>176</ele>
        <time>2020-10-03T09:36:50+02:00</time>
      </trkpt>
      <trkpt lat="48.08557" lon="3.32449">
        <ele>175</ele>
        <time>2020-10-03T09:36:55+02:00</time>
      </trkpt>
      <trkpt lat="48.08562" lon="3.32491">
        <ele>175</ele>
        <time>2020-10-03T09:37:00+02:00</time>
      </trkpt>
      <trkpt lat="48.08568" lon="3.32543">
        <ele>176</ele>
        <time>2020-10-03T09:37:05+02:00</time>
      </trkpt>
      <trkpt lat="48.08575" lon="3.32603">
        <ele>177</ele>
        <time>2020-10-03T09:37:10+02:00</time>
      </trkpt>
      <trkpt lat="48.08583" lon="3.32654">
        <ele>178</ele>
        <time>2020-10-03T09:37:15+02:00</time>
      </trkpt>
      <trkpt lat="48.08589" lon="3.32709">
        <ele>178</ele>
        <time>2020-10-03T09:37:20+02:00</time>
      </trkpt>
      <trkpt lat="48.08594" lon="3.3276">
        <ele>178</ele>
        <time>2020-10-03T09:37:25+02:00</time>
      </trkpt>
      <trkpt lat="48.08597" lon="3.32818">
        <ele>178</ele>
        <time>2020-10-03T09:37:30+02:00</time>
      </trkpt>
      <trkpt lat="48.08596" lon="3.32852">
        <ele>177</ele>
        <time>2020-10-03T09:37:35+02:00</time>
      </trkpt>
      <trkpt lat="48.08596" lon="3.32892">
        <ele>177</ele>
        <time>2020-10-03T09:37:40+02:00</time>
      </trkpt>
      <trkpt lat="48.08592" lon="3.32944">
        <ele>176</ele>
        <time>2020-10-03T09:37:45+02:00</time>
      </trkpt>
      <trkpt lat="48.08586" lon="3.3301">
        <ele>175</ele>
        <time>2020-10-03T09:37:50+02:00</time>
      </trkpt>
      <trkpt lat="48.08584" lon="3.33048">
        <ele>176</ele>
        <time>2020-10-03T09:37:55+02:00</time>
      </trkpt>
      <trkpt lat="48.08584" lon="3.33085">
        <ele>176</ele>
        <time>2020-10-03T09:38:00+02:00</time>
      </trkpt>
      <trkpt lat="48.08584" lon="3.33143">
        <ele>176</ele>
        <time>2020-10-03T09:38:05+02:00</time>
      </trkpt>
      <trkpt lat="48.08584" lon="3.33171">
        <ele>176</ele>
        <time>2020-10-03T09:38:10+02:00</time>
      </trkpt>
      <trkpt lat="48.08585" lon="3.33198">
        <ele>176</ele>
        <time>2020-10-03T09:38:15+02:00</time>
      </trkpt>
      <trkpt lat="48.08593" lon="3.33244">
        <ele>176</ele>
        <time>2020-10-03T09:38:20+02:00</time>
      </trkpt>
      <trkpt lat="48.08601" lon="3.33297">
        <ele>174</ele>
        <time>2020-10-03T09:38:25+02:00</time>
      </trkpt>
      <trkpt lat="48.08609" lon="3.33357">
        <ele>173</ele>
        <time>2020-10-03T09:38:30+02:00</time>
      </trkpt>
      <trkpt lat="48.0861" lon="3.33381">
        <ele>172</ele>
        <time>2020-10-03T09:38:35+02:00</time>
      </trkpt>
      <trkpt lat="48.08609" lon="3.33403">
        <ele>171</ele>
        <time>2020-10-03T09:38:40+02:00</time>
      </trkpt>
      <trkpt lat="48.08603" lon="3.33447">
        <ele>171</ele>
        <time>2020-10-03T09:38:45+02:00</time>
      </trkpt>
      <trkpt lat="48.08594" lon="3.335">
        <ele>172</ele>
        <time>2020-10-03T09:38:50+02:00</time>
      </trkpt>
      <trkpt lat="48.08585" lon="3.33546">
        <ele>171</ele>
        <time>2020-10-03T09:38:55+02:00</time>
      </trkpt>
      <trkpt lat="48.08581" lon="3.33578">
        <ele>170</ele>
        <time>2020-10-03T09:39:00+02:00</time>
      </trkpt>
      <trkpt lat="48.08582" lon="3.33602">
        <ele>170</ele>
        <time>2020-10-03T09:39:05+02:00</time>
      </trkpt>
      <trkpt lat="48.08584" lon="3.33623">
        <ele>169</ele>
        <time>2020-10-03T09:39:10+02:00</time>
      </trkpt>
      <trkpt lat="48.08587" lon="3.33643">
        <ele>169</ele>
        <time>2020-10-03T09:39:15+02:00</time>
      </trkpt>
      <trkpt lat="48.08593" lon="3.33674">
        <ele>168</ele>
        <time>2020-10-03T09:39:20+02:00</time>
      </trkpt>
      <trkpt lat="48.08603" lon="3.33733">
        <ele>170</ele>
        <time>2020-10-03T09:39:25+02:00</time>
      </trkpt>
      <trkpt lat="48.08609" lon="3.33778">
        <ele>171</ele>
        <time>2020-10-03T09:39:30+02:00</time>
      </trkpt>
      <trkpt lat="48.08611" lon="3.33812">
        <ele>172</ele>
        <time>2020-10-03T09:39:35+02:00</time>
      </trkpt>
      <trkpt lat="48.0861" lon="3.33835">
        <ele>172</ele>
        <time>2020-10-03T09:39:40+02:00</time>
      </trkpt>
      <trkpt lat="48.08607" lon="3.33858">
        <ele>172</ele>
        <time>2020-10-03T09:39:45+02:00</time>
      </trkpt>
      <trkpt lat="48.08604" lon="3.33881">
        <ele>172</ele>
        <time>2020-10-03T09:39:50+02:00</time>
      </trkpt>
      <trkpt lat="48.086" lon="3.3392">
        <ele>171</ele>
        <time>2020-10-03T09:39:55+02:00</time>
      </trkpt>
      <trkpt lat="48.08597" lon="3.33962">
        <ele>171</ele>
        <time>2020-10-03T09:40:00+02:00</time>
      </trkpt>
      <trkpt lat="48.08595" lon="3.34029">
        <ele>171</ele>
        <time>2020-10-03T09:40:05+02:00</time>
      </trkpt>
      <trkpt lat="48.08594" lon="3.34067">
        <ele>172</ele>
        <time>2020-10-03T09:40:10+02:00</time>
      </trkpt>
      <trkpt lat="48.08592" lon="3.341">
        <ele>172</ele>
        <time>2020-10-03T09:40:15+02:00</time>
      </trkpt>
      <trkpt lat="48.08587" lon="3.34125">
        <ele>173</ele>
        <time>2020-10-03T09:40:20+02:00</time>
      </trkpt>
      <trkpt lat="48.08582" lon="3.34146">
        <ele>173</ele>
        <time>2020-10-03T09:40:25+02:00</time>
      </trkpt>
      <trkpt lat="48.08576" lon="3.34169">
        <ele>173</ele>
        <time>2020-10-03T09:40:30+02:00</time>
      </trkpt>
      <trkpt lat="48.0857" lon="3.34191">
        <ele>174</ele>
        <time>2020-10-03T09:40:35+02:00</time>
      </trkpt>
      <trkpt lat="48.08561" lon="3.34245">
        <ele>175</ele>
        <time>2020-10-03T09:40:40+02:00</time>
      </trkpt>
      <trkpt lat="48.08555" lon="3.34297">
        <ele>176</ele>
        <time>2020-10-03T09:40:45+02:00</time>
      </trkpt>
      <trkpt lat="48.08573" lon="3.343">
        <ele>177</ele>
        <time>2020-10-03T09:40:50+02:00</time>
      </trkpt>
      <trkpt lat="48.08595" lon="3.343">
        <ele>177</ele>
        <time>2020-10-03T09:40:55+02:00</time>
      </trkpt>
      <trkpt lat="48.08634" lon="3.34297">
        <ele>178</ele>
        <time>2020-10-03T09:41:00+02:00</time>
      </trkpt>
      <trkpt lat="48.08667" lon="3.34291">
        <ele>178</ele>
        <time>2020-10-03T09:41:05+02:00</time>
      </trkpt>
      <trkpt lat="48.0869" lon="3.34282">
        <ele>178</ele>
        <time>2020-10-03T09:41:10+02:00</time>
      </trkpt>
      <trkpt lat="48.087" lon="3.3428">
        <ele>178</ele>
        <time>2020-10-03T09:41:15+02:00</time>
      </trkpt>
      <trkpt lat="48.08709" lon="3.34281">
        <ele>178</ele>
        <time>2020-10-03T09:41:20+02:00</time>
      </trkpt>
      <trkpt lat="48.08735" lon="3.3431">
        <ele>178</ele>
        <time>2020-10-03T09:41:25+02:00</time>
      </trkpt>
      <trkpt lat="48.0875" lon="3.34323">
        <ele>177</ele>
        <time>2020-10-03T09:41:30+02:00</time>
      </trkpt>
      <trkpt lat="48.08766" lon="3.34328">
        <ele>176</ele>
        <time>2020-10-03T09:41:35+02:00</time>
      </trkpt>
      <trkpt lat="48.08792" lon="3.34333">
        <ele>175</ele>
        <time>2020-10-03T09:41:40+02:00</time>
      </trkpt>
      <trkpt lat="48.0886" lon="3.3434">
        <ele>171</ele>
        <time>2020-10-03T09:41:45+02:00</time>
      </trkpt>
      <trkpt lat="48.08978" lon="3.3434">
        <ele>167</ele>
        <time>2020-10-03T09:41:50+02:00</time>
      </trkpt>
      <trkpt lat="48.09008" lon="3.34342">
        <ele>166</ele>
        <time>2020-10-03T09:41:55+02:00</time>
      </trkpt>
      <trkpt lat="48.09031" lon="3.34347">
        <ele>165</ele>
        <time>2020-10-03T09:42:00+02:00</time>
      </trkpt>
      <trkpt lat="48.09056" lon="3.34367">
        <ele>165</ele>
        <time>2020-10-03T09:42:05+02:00</time>
      </trkpt>
      <trkpt lat="48.0907" lon="3.3438">
        <ele>164</ele>
        <time>2020-10-03T09:42:10+02:00</time>
      </trkpt>
      <trkpt lat="48.09085" lon="3.34394">
        <ele>163</ele>
        <time>2020-10-03T09:42:15+02:00</time>
      </trkpt>
      <trkpt lat="48.09101" lon="3.34419">
        <ele>160</ele>
        <time>2020-10-03T09:42:20+02:00</time>
      </trkpt>
      <trkpt lat="48.09114" lon="3.34442">
        <ele>156</ele>
        <time>2020-10-03T09:42:25+02:00</time>
      </trkpt>
      <trkpt lat="48.09119" lon="3.34449">
        <ele>155</ele>
        <time>2020-10-03T09:42:30+02:00</time>
      </trkpt>
      <trkpt lat="48.09141" lon="3.34464">
        <ele>149</ele>
        <time>2020-10-03T09:42:35+02:00</time>
      </trkpt>
      <trkpt lat="48.09163" lon="3.34483">
        <ele>144</ele>
        <time>2020-10-03T09:42:40+02:00</time>
      </trkpt>
      <trkpt lat="48.09186" lon="3.34498">
        <ele>139</ele>
        <time>2020-10-03T09:42:45+02:00</time>
      </trkpt>
      <trkpt lat="48.09201" lon="3.3451">
        <ele>135</ele>
        <time>2020-10-03T09:42:50+02:00</time>
      </trkpt>
      <trkpt lat="48.09223" lon="3.34524">
        <ele>130</ele>
        <time>2020-10-03T09:42:55+02:00</time>
      </trkpt>
      <trkpt lat="48.09256" lon="3.34543">
        <ele>124</ele>
        <time>2020-10-03T09:43:00+02:00</time>
      </trkpt>
      <trkpt lat="48.09286" lon="3.34559">
        <ele>120</ele>
        <time>2020-10-03T09:43:05+02:00</time>
      </trkpt>
      <trkpt lat="48.09318" lon="3.34582">
        <ele>117</ele>
        <time>2020-10-03T09:43:10+02:00</time>
      </trkpt>
      <trkpt lat="48.09343" lon="3.34601">
        <ele>113</ele>
        <time>2020-10-03T09:43:15+02:00</time>
      </trkpt>
      <trkpt lat="48.09365" lon="3.34616">
        <ele>110</ele>
        <time>2020-10-03T09:43:20+02:00</time>
      </trkpt>
      <trkpt lat="48.09392" lon="3.34632">
        <ele>106</ele>
        <time>2020-10-03T09:43:25+02:00</time>
      </trkpt>
      <trkpt lat="48.09413" lon="3.34638">
        <ele>104</ele>
        <time>2020-10-03T09:43:30+02:00</time>
      </trkpt>
      <trkpt lat="48.0942" lon="3.3464">
        <ele>104</ele>
        <time>2020-10-03T09:43:35+02:00</time>
      </trkpt>
      <trkpt lat="48.09426" lon="3.34646">
        <ele>103</ele>
        <time>2020-10-03T09:43:40+02:00</time>
      </trkpt>
      <trkpt lat="48.09436" lon="3.34669">
        <ele>102</ele>
        <time>2020-10-03T09:43:45+02:00</time>
      </trkpt>
      <trkpt lat="48.09441" lon="3.3469">
        <ele>102</ele>
        <time>2020-10-03T09:43:50+02:00</time>
      </trkpt>
      <trkpt lat="48.09484" lon="3.34688">
        <ele>99</ele>
        <time>2020-10-03T09:43:55+02:00</time>
      </trkpt>
      <trkpt lat="48.09503" lon="3.34686">
        <ele>98</ele>
        <time>2020-10-03T09:44:00+02:00</time>
      </trkpt>
      <trkpt lat="48.09511" lon="3.34698">
        <ele>98</ele>
        <time>2020-10-03T09:44:05+02:00</time>
      </trkpt>
      <trkpt lat="48.09521" lon="3.34705">
        <ele>98</ele>
        <time>2020-10-03T09:44:10+02:00</time>
      </trkpt>
      <trkpt lat="48.09557" lon="3.34703">
        <ele>97</ele>
        <time>2020-10-03T09:44:15+02:00</time>
      </trkpt>
      <trkpt lat="48.09598" lon="3.34699">
        <ele>96</ele>
        <time>2020-10-03T09:44:20+02:00</time>
      </trkpt>
      <trkpt lat="48.09609" lon="3.34699">
        <ele>95</ele>
        <time>2020-10-03T09:44:25+02:00</time>
      </trkpt>
      <trkpt lat="48.09663" lon="3.34693">
        <ele>93</ele>
        <time>2020-10-03T09:44:30+02:00</time>
      </trkpt>
      <trkpt lat="48.09711" lon="3.34688">
        <ele>94</ele>
        <time>2020-10-03T09:44:35+02:00</time>
      </trkpt>
      <trkpt lat="48.09746" lon="3.34685">
        <ele>95</ele>
        <time>2020-10-03T09:44:40+02:00</time>
      </trkpt>
      <trkpt lat="48.09756" lon="3.3469">
        <ele>96</ele>
        <time>2020-10-03T09:44:45+02:00</time>
      </trkpt>
      <trkpt lat="48.09763" lon="3.34698">
        <ele>97</ele>
        <time>2020-10-03T09:44:50+02:00</time>
      </trkpt>
      <trkpt lat="48.0977" lon="3.34711">
        <ele>98</ele>
        <time>2020-10-03T09:44:55+02:00</time>
      </trkpt>
      <trkpt lat="48.09773" lon="3.34703">
        <ele>99</ele>
        <time>2020-10-03T09:45:00+02:00</time>
      </trkpt>
      <trkpt lat="48.09778" lon="3.34707">
        <ele>100</ele>
        <time>2020-10-03T09:45:05+02:00</time>
      </trkpt>
      <trkpt lat="48.0978" lon="3.34728">
        <ele>100</ele>
        <time>2020-10-03T09:45:10+02:00</time>
      </trkpt>
      <trkpt lat="48.09782" lon="3.34742">
        <ele>100</ele>
        <time>2020-10-03T09:45:15+02:00</time>
      </trkpt>
      <trkpt lat="48.09783" lon="3.34748">
        <ele>101</ele>
        <time>2020-10-03T09:45:20+02:00</time>
      </trkpt>
      <trkpt lat="48.09789" lon="3.34752">
        <ele>102</ele>
        <time>2020-10-03T09:45:25+02:00</time>
      </trkpt>
      <trkpt lat="48.09799" lon="3.34752">
        <ele>103</ele>
        <time>2020-10-03T09:45:30+02:00</time>
      </trkpt>
      <trkpt lat="48.09823" lon="3.34755">
        <ele>107</ele>
        <time>2020-10-03T09:45:35+02:00</time>
      </trkpt>
      <trkpt lat="48.09849" lon="3.34759">
        <ele>113</ele>
        <time>2020-10-03T09:45:40+02:00</time>
      </trkpt>
      <trkpt lat="48.09874" lon="3.34762">
        <ele>120</ele>
        <time>2020-10-03T09:45:45+02:00</time>
      </trkpt>
      <trkpt lat="48.09895" lon="3.34765">
        <ele>126</ele>
        <time>2020-10-03T09:45:50+02:00</time>
      </trkpt>
      <trkpt lat="48.09921" lon="3.3477">
        <ele>133</ele>
        <time>2020-10-03T09:45:55+02:00</time>
      </trkpt>
      <trkpt lat="48.09938" lon="3.34771">
        <ele>136</ele>
        <time>2020-10-03T09:46:00+02:00</time>
      </trkpt>
      <trkpt lat="48.09966" lon="3.34772">
        <ele>142</ele>
        <time>2020-10-03T09:46:05+02:00</time>
      </trkpt>
      <trkpt lat="48.09995" lon="3.34774">
        <ele>148</ele>
        <time>2020-10-03T09:46:10+02:00</time>
      </trkpt>
      <trkpt lat="48.10022" lon="3.34775">
        <ele>154</ele>
        <time>2020-10-03T09:46:15+02:00</time>
      </trkpt>
      <trkpt lat="48.10053" lon="3.34776">
        <ele>161</ele>
        <time>2020-10-03T09:46:20+02:00</time>
      </trkpt>
      <trkpt lat="48.10082" lon="3.34777">
        <ele>167</ele>
        <time>2020-10-03T09:46:25+02:00</time>
      </trkpt>
      <trkpt lat="48.10115" lon="3.34778">
        <ele>173</ele>
        <time>2020-10-03T09:46:30+02:00</time>
      </trkpt>
      <trkpt lat="48.10138" lon="3.34779">
        <ele>177</ele>
        <time>2020-10-03T09:46:35+02:00</time>
      </trkpt>
      <trkpt lat="48.10173" lon="3.34781">
        <ele>182</ele>
        <time>2020-10-03T09:46:40+02:00</time>
      </trkpt>
      <trkpt lat="48.10198" lon="3.34783">
        <ele>183</ele>
        <time>2020-10-03T09:46:45+02:00</time>
      </trkpt>
      <trkpt lat="48.10215" lon="3.34779">
        <ele>184</ele>
        <time>2020-10-03T09:46:50+02:00</time>
      </trkpt>
      <trkpt lat="48.10231" lon="3.34775">
        <ele>184</ele>
        <time>2020-10-03T09:46:55+02:00</time>
      </trkpt>
      <trkpt lat="48.10252" lon="3.3477">
        <ele>185</ele>
        <time>2020-10-03T09:47:00+02:00</time>
      </trkpt>
      <trkpt lat="48.10275" lon="3.34764">
        <ele>185</ele>
        <time>2020-10-03T09:47:05+02:00</time>
      </trkpt>
      <trkpt lat="48.10302" lon="3.34758">
        <ele>185</ele>
        <time>2020-10-03T09:47:10+02:00</time>
      </trkpt>
      <trkpt lat="48.10327" lon="3.3475">
        <ele>185</ele>
        <time>2020-10-03T09:47:15+02:00</time>
      </trkpt>
      <trkpt lat="48.10351" lon="3.34743">
        <ele>184</ele>
        <time>2020-10-03T09:47:20+02:00</time>
      </trkpt>
      <trkpt lat="48.10389" lon="3.34732">
        <ele>183</ele>
        <time>2020-10-03T09:47:25+02:00</time>
      </trkpt>
      <trkpt lat="48.10404" lon="3.34729">
        <ele>183</ele>
        <time>2020-10-03T09:47:30+02:00</time>
      </trkpt>
      <trkpt lat="48.10416" lon="3.34734">
        <ele>183</ele>
        <time>2020-10-03T09:47:35+02:00</time>
      </trkpt>
      <trkpt lat="48.10437" lon="3.34756">
        <ele>181</ele>
        <time>2020-10-03T09:47:40+02:00</time>
      </trkpt>
      <trkpt lat="48.10466" lon="3.34791">
        <ele>179</ele>
        <time>2020-10-03T09:47:45+02:00</time>
      </trkpt>
      <trkpt lat="48.1048" lon="3.34807">
        <ele>178</ele>
        <time>2020-10-03T09:47:50+02:00</time>
      </trkpt>
      <trkpt lat="48.10494" lon="3.34822">
        <ele>177</ele>
        <time>2020-10-03T09:47:55+02:00</time>
      </trkpt>
      <trkpt lat="48.10494" lon="3.3482">
        <ele>177</ele>
        <time>2020-10-03T09:48:00+02:00</time>
      </trkpt>
      <trkpt lat="48.10507" lon="3.3483">
        <ele>177</ele>
        <time>2020-10-03T09:48:05+02:00</time>
      </trkpt>
      <trkpt lat="48.10519" lon="3.34843">
        <ele>176</ele>
        <time>2020-10-03T09:48:10+02:00</time>
      </trkpt>
      <trkpt lat="48.10534" lon="3.34859">
        <ele>176</ele>
        <time>2020-10-03T09:48:15+02:00</time>
      </trkpt>
      <trkpt lat="48.10561" lon="3.34844">
        <ele>174</ele>
        <time>2020-10-03T09:48:20+02:00</time>
      </trkpt>
      <trkpt lat="48.10574" lon="3.34833">
        <ele>173</ele>
        <time>2020-10-03T09:48:25+02:00</time>
      </trkpt>
      <trkpt lat="48.1059" lon="3.34832">
        <ele>173</ele>
        <time>2020-10-03T09:48:30+02:00</time>
      </trkpt>
      <trkpt lat="48.10617" lon="3.34825">
        <ele>175</ele>
        <time>2020-10-03T09:48:35+02:00</time>
      </trkpt>
      <trkpt lat="48.10627" lon="3.34824">
        <ele>175</ele>
        <time>2020-10-03T09:48:40+02:00</time>
      </trkpt>
      <trkpt lat="48.10637" lon="3.34828">
        <ele>176</ele>
        <time>2020-10-03T09:48:45+02:00</time>
      </trkpt>
      <trkpt lat="48.10646" lon="3.34839">
        <ele>177</ele>
        <time>2020-10-03T09:48:50+02:00</time>
      </trkpt>
      <trkpt lat="48.10654" lon="3.34856">
        <ele>178</ele>
        <time>2020-10-03T09:48:55+02:00</time>
      </trkpt>
      <trkpt lat="48.10665" lon="3.34865">
        <ele>178</ele>
        <time>2020-10-03T09:49:00+02:00</time>
      </trkpt>
      <trkpt lat="48.10684" lon="3.34877">
        <ele>179</ele>
        <time>2020-10-03T09:49:05+02:00</time>
      </trkpt>
      <trkpt lat="48.10709" lon="3.34893">
        <ele>180</ele>
        <time>2020-10-03T09:49:10+02:00</time>
      </trkpt>
      <trkpt lat="48.10732" lon="3.34903">
        <ele>180</ele>
        <time>2020-10-03T09:49:15+02:00</time>
      </trkpt>
      <trkpt lat="48.10759" lon="3.34914">
        <ele>181</ele>
        <time>2020-10-03T09:49:20+02:00</time>
      </trkpt>
      <trkpt lat="48.10785" lon="3.34923">
        <ele>182</ele>
        <time>2020-10-03T09:49:25+02:00</time>
      </trkpt>
      <trkpt lat="48.1081" lon="3.34924">
        <ele>182</ele>
        <time>2020-10-03T09:49:30+02:00</time>
      </trkpt>
      <trkpt lat="48.10833" lon="3.34919">
        <ele>183</ele>
        <time>2020-10-03T09:49:35+02:00</time>
      </trkpt>
      <trkpt lat="48.10856" lon="3.34914">
        <ele>184</ele>
        <time>2020-10-03T09:49:40+02:00</time>
      </trkpt>
      <trkpt lat="48.10897" lon="3.34903">
        <ele>186</ele>
        <time>2020-10-03T09:49:45+02:00</time>
      </trkpt>
      <trkpt lat="48.1093" lon="3.34896">
        <ele>188</ele>
        <time>2020-10-03T09:49:50+02:00</time>
      </trkpt>
      <trkpt lat="48.10948" lon="3.34887">
        <ele>188</ele>
        <time>2020-10-03T09:49:55+02:00</time>
      </trkpt>
      <trkpt lat="48.10965" lon="3.34873">
        <ele>189</ele>
        <time>2020-10-03T09:50:00+02:00</time>
      </trkpt>
      <trkpt lat="48.10978" lon="3.34868">
        <ele>190</ele>
        <time>2020-10-03T09:50:05+02:00</time>
      </trkpt>
      <trkpt lat="48.11057" lon="3.34849">
        <ele>192</ele>
        <time>2020-10-03T09:50:10+02:00</time>
      </trkpt>
      <trkpt lat="48.11081" lon="3.34843">
        <ele>193</ele>
        <time>2020-10-03T09:50:15+02:00</time>
      </trkpt>
      <trkpt lat="48.11092" lon="3.34839">
        <ele>193</ele>
        <time>2020-10-03T09:50:20+02:00</time>
      </trkpt>
      <trkpt lat="48.11103" lon="3.34837">
        <ele>193</ele>
        <time>2020-10-03T09:50:25+02:00</time>
      </trkpt>
      <trkpt lat="48.11103" lon="3.34836">
        <ele>193</ele>
        <time>2020-10-03T09:50:30+02:00</time>
      </trkpt>
      <trkpt lat="48.11105" lon="3.34807">
        <ele>193</ele>
        <time>2020-10-03T09:50:35+02:00</time>
      </trkpt>
      <trkpt lat="48.11107" lon="3.34717">
        <ele>191</ele>
        <time>2020-10-03T09:50:40+02:00</time>
      </trkpt>
      <trkpt lat="48.11109" lon="3.34654">
        <ele>190</ele>
        <time>2020-10-03T09:50:45+02:00</time>
      </trkpt>
      <trkpt lat="48.1111" lon="3.34624">
        <ele>190</ele>
        <time>2020-10-03T09:50:50+02:00</time>
      </trkpt>
      <trkpt lat="48.11112" lon="3.3454">
        <ele>189</ele>
        <time>2020-10-03T09:50:55+02:00</time>
      </trkpt>
      <trkpt lat="48.11115" lon="3.34445">
        <ele>188</ele>
        <time>2020-10-03T09:51:00+02:00</time>
      </trkpt>
      <trkpt lat="48.11117" lon="3.34384">
        <ele>186</ele>
        <time>2020-10-03T09:51:05+02:00</time>
      </trkpt>
      <trkpt lat="48.11123" lon="3.34201">
        <ele>184</ele>
        <time>2020-10-03T09:51:10+02:00</time>
      </trkpt>
      <trkpt lat="48.11125" lon="3.34139">
        <ele>185</ele>
        <time>2020-10-03T09:51:15+02:00</time>
      </trkpt>
      <trkpt lat="48.11127" lon="3.34079">
        <ele>186</ele>
        <time>2020-10-03T09:51:20+02:00</time>
      </trkpt>
      <trkpt lat="48.11127" lon="3.34056">
        <ele>186</ele>
        <time>2020-10-03T09:51:25+02:00</time>
      </trkpt>
      <trkpt lat="48.1113" lon="3.33963">
        <ele>184</ele>
        <time>2020-10-03T09:51:30+02:00</time>
      </trkpt>
      <trkpt lat="48.11137" lon="3.3382">
        <ele>186</ele>
        <time>2020-10-03T09:51:35+02:00</time>
      </trkpt>
      <trkpt lat="48.11138" lon="3.33804">
        <ele>186</ele>
        <time>2020-10-03T09:51:40+02:00</time>
      </trkpt>
      <trkpt lat="48.11154" lon="3.33823">
        <ele>186</ele>
        <time>2020-10-03T09:51:45+02:00</time>
      </trkpt>
      <trkpt lat="48.11166" lon="3.33847">
        <ele>186</ele>
        <time>2020-10-03T09:51:50+02:00</time>
      </trkpt>
      <trkpt lat="48.11182" lon="3.33875">
        <ele>185</ele>
        <time>2020-10-03T09:51:55+02:00</time>
      </trkpt>
      <trkpt lat="48.11199" lon="3.33907">
        <ele>184</ele>
        <time>2020-10-03T09:52:00+02:00</time>
      </trkpt>
      <trkpt lat="48.11217" lon="3.33935">
        <ele>184</ele>
        <time>2020-10-03T09:52:05+02:00</time>
      </trkpt>
      <trkpt lat="48.1123" lon="3.33947">
        <ele>184</ele>
        <time>2020-10-03T09:52:10+02:00</time>
      </trkpt>
      <trkpt lat="48.11242" lon="3.33957">
        <ele>184</ele>
        <time>2020-10-03T09:52:15+02:00</time>
      </trkpt>
      <trkpt lat="48.11253" lon="3.33834">
        <ele>184</ele>
        <time>2020-10-03T09:52:20+02:00</time>
      </trkpt>
      <trkpt lat="48.11256" lon="3.33815">
        <ele>185</ele>
        <time>2020-10-03T09:52:25+02:00</time>
      </trkpt>
      <trkpt lat="48.11261" lon="3.33796">
        <ele>185</ele>
        <time>2020-10-03T09:52:30+02:00</time>
      </trkpt>
      <trkpt lat="48.11272" lon="3.33761">
        <ele>186</ele>
        <time>2020-10-03T09:52:35+02:00</time>
      </trkpt>
      <trkpt lat="48.11295" lon="3.33695">
        <ele>185</ele>
        <time>2020-10-03T09:52:40+02:00</time>
      </trkpt>
      <trkpt lat="48.11305" lon="3.3366">
        <ele>184</ele>
        <time>2020-10-03T09:52:45+02:00</time>
      </trkpt>
      <trkpt lat="48.11315" lon="3.33632">
        <ele>183</ele>
        <time>2020-10-03T09:52:50+02:00</time>
      </trkpt>
      <trkpt lat="48.11331" lon="3.33574">
        <ele>181</ele>
        <time>2020-10-03T09:52:55+02:00</time>
      </trkpt>
      <trkpt lat="48.11377" lon="3.33431">
        <ele>181</ele>
        <time>2020-10-03T09:53:00+02:00</time>
      </trkpt>
      <trkpt lat="48.11385" lon="3.33403">
        <ele>180</ele>
        <time>2020-10-03T09:53:05+02:00</time>
      </trkpt>
      <trkpt lat="48.11392" lon="3.33385">
        <ele>180</ele>
        <time>2020-10-03T09:53:10+02:00</time>
      </trkpt>
      <trkpt lat="48.11403" lon="3.3331">
        <ele>177</ele>
        <time>2020-10-03T09:53:15+02:00</time>
      </trkpt>
      <trkpt lat="48.11413" lon="3.33211">
        <ele>179</ele>
        <time>2020-10-03T09:53:20+02:00</time>
      </trkpt>
      <trkpt lat="48.11416" lon="3.33157">
        <ele>181</ele>
        <time>2020-10-03T09:53:25+02:00</time>
      </trkpt>
      <trkpt lat="48.1142" lon="3.33118">
        <ele>182</ele>
        <time>2020-10-03T09:53:30+02:00</time>
      </trkpt>
      <trkpt lat="48.11428" lon="3.33029">
        <ele>182</ele>
        <time>2020-10-03T09:53:35+02:00</time>
      </trkpt>
      <trkpt lat="48.11436" lon="3.32929">
        <ele>181</ele>
        <time>2020-10-03T09:53:40+02:00</time>
      </trkpt>
      <trkpt lat="48.11439" lon="3.32895">
        <ele>182</ele>
        <time>2020-10-03T09:53:45+02:00</time>
      </trkpt>
      <trkpt lat="48.1144" lon="3.32867">
        <ele>182</ele>
        <time>2020-10-03T09:53:50+02:00</time>
      </trkpt>
      <trkpt lat="48.1144" lon="3.32834">
        <ele>183</ele>
        <time>2020-10-03T09:53:55+02:00</time>
      </trkpt>
      <trkpt lat="48.11434" lon="3.32781">
        <ele>182</ele>
        <time>2020-10-03T09:54:00+02:00</time>
      </trkpt>
      <trkpt lat="48.11431" lon="3.32734">
        <ele>181</ele>
        <time>2020-10-03T09:54:05+02:00</time>
      </trkpt>
      <trkpt lat="48.11421" lon="3.32632">
        <ele>178</ele>
        <time>2020-10-03T09:54:10+02:00</time>
      </trkpt>
      <trkpt lat="48.11417" lon="3.32574">
        <ele>176</ele>
        <time>2020-10-03T09:54:15+02:00</time>
      </trkpt>
      <trkpt lat="48.11416" lon="3.32552">
        <ele>176</ele>
        <time>2020-10-03T09:54:20+02:00</time>
      </trkpt>
      <trkpt lat="48.11414" lon="3.32511">
        <ele>175</ele>
        <time>2020-10-03T09:54:25+02:00</time>
      </trkpt>
      <trkpt lat="48.11414" lon="3.32478">
        <ele>175</ele>
        <time>2020-10-03T09:54:30+02:00</time>
      </trkpt>
      <trkpt lat="48.11413" lon="3.3243">
        <ele>176</ele>
        <time>2020-10-03T09:54:35+02:00</time>
      </trkpt>
      <trkpt lat="48.11414" lon="3.32397">
        <ele>175</ele>
        <time>2020-10-03T09:54:40+02:00</time>
      </trkpt>
      <trkpt lat="48.11414" lon="3.32354">
        <ele>172</ele>
        <time>2020-10-03T09:54:45+02:00</time>
      </trkpt>
      <trkpt lat="48.11412" lon="3.32322">
        <ele>170</ele>
        <time>2020-10-03T09:54:50+02:00</time>
      </trkpt>
      <trkpt lat="48.11414" lon="3.32287">
        <ele>168</ele>
        <time>2020-10-03T09:54:55+02:00</time>
      </trkpt>
      <trkpt lat="48.11415" lon="3.32244">
        <ele>165</ele>
        <time>2020-10-03T09:55:00+02:00</time>
      </trkpt>
      <trkpt lat="48.11419" lon="3.3219">
        <ele>164</ele>
        <time>2020-10-03T09:55:05+02:00</time>
      </trkpt>
      <trkpt lat="48.11421" lon="3.32159">
        <ele>163</ele>
        <time>2020-10-03T09:55:10+02:00</time>
      </trkpt>
      <trkpt lat="48.11424" lon="3.32131">
        <ele>161</ele>
        <time>2020-10-03T09:55:15+02:00</time>
      </trkpt>
      <trkpt lat="48.11429" lon="3.32084">
        <ele>159</ele>
        <time>2020-10-03T09:55:20+02:00</time>
      </trkpt>
      <trkpt lat="48.11437" lon="3.32021">
        <ele>154</ele>
        <time>2020-10-03T09:55:25+02:00</time>
      </trkpt>
      <trkpt lat="48.1144" lon="3.31975">
        <ele>151</ele>
        <time>2020-10-03T09:55:30+02:00</time>
      </trkpt>
      <trkpt lat="48.11443" lon="3.31939">
        <ele>149</ele>
        <time>2020-10-03T09:55:35+02:00</time>
      </trkpt>
      <trkpt lat="48.11449" lon="3.31897">
        <ele>147</ele>
        <time>2020-10-03T09:55:40+02:00</time>
      </trkpt>
      <trkpt lat="48.11455" lon="3.31834">
        <ele>146</ele>
        <time>2020-10-03T09:55:45+02:00</time>
      </trkpt>
      <trkpt lat="48.11457" lon="3.31802">
        <ele>144</ele>
        <time>2020-10-03T09:55:50+02:00</time>
      </trkpt>
      <trkpt lat="48.11463" lon="3.31764">
        <ele>141</ele>
        <time>2020-10-03T09:55:55+02:00</time>
      </trkpt>
      <trkpt lat="48.11467" lon="3.31727">
        <ele>138</ele>
        <time>2020-10-03T09:56:00+02:00</time>
      </trkpt>
      <trkpt lat="48.1147" lon="3.3169">
        <ele>134</ele>
        <time>2020-10-03T09:56:05+02:00</time>
      </trkpt>
      <trkpt lat="48.11472" lon="3.31659">
        <ele>131</ele>
        <time>2020-10-03T09:56:10+02:00</time>
      </trkpt>
      <trkpt lat="48.11472" lon="3.31613">
        <ele>127</ele>
        <time>2020-10-03T09:56:15+02:00</time>
      </trkpt>
      <trkpt lat="48.1147" lon="3.31584">
        <ele>125</ele>
        <time>2020-10-03T09:56:20+02:00</time>
      </trkpt>
      <trkpt lat="48.11467" lon="3.31533">
        <ele>121</ele>
        <time>2020-10-03T09:56:25+02:00</time>
      </trkpt>
      <trkpt lat="48.11467" lon="3.3151">
        <ele>119</ele>
        <time>2020-10-03T09:56:30+02:00</time>
      </trkpt>
      <trkpt lat="48.11469" lon="3.31493">
        <ele>118</ele>
        <time>2020-10-03T09:56:35+02:00</time>
      </trkpt>
      <trkpt lat="48.11475" lon="3.31463">
        <ele>116</ele>
        <time>2020-10-03T09:56:40+02:00</time>
      </trkpt>
      <trkpt lat="48.11484" lon="3.31422">
        <ele>113</ele>
        <time>2020-10-03T09:56:45+02:00</time>
      </trkpt>
      <trkpt lat="48.11491" lon="3.31394">
        <ele>111</ele>
        <time>2020-10-03T09:56:50+02:00</time>
      </trkpt>
      <trkpt lat="48.11499" lon="3.31361">
        <ele>110</ele>
        <time>2020-10-03T09:56:55+02:00</time>
      </trkpt>
      <trkpt lat="48.1151" lon="3.31325">
        <ele>108</ele>
        <time>2020-10-03T09:57:00+02:00</time>
      </trkpt>
      <trkpt lat="48.1152" lon="3.31286">
        <ele>105</ele>
        <time>2020-10-03T09:57:05+02:00</time>
      </trkpt>
      <trkpt lat="48.1153" lon="3.31245">
        <ele>102</ele>
        <time>2020-10-03T09:57:10+02:00</time>
      </trkpt>
      <trkpt lat="48.11544" lon="3.31205">
        <ele>99</ele>
        <time>2020-10-03T09:57:15+02:00</time>
      </trkpt>
      <trkpt lat="48.11556" lon="3.31169">
        <ele>97</ele>
        <time>2020-10-03T09:57:20+02:00</time>
      </trkpt>
      <trkpt lat="48.11573" lon="3.31111">
        <ele>95</ele>
        <time>2020-10-03T09:57:25+02:00</time>
      </trkpt>
      <trkpt lat="48.11583" lon="3.31078">
        <ele>94</ele>
        <time>2020-10-03T09:57:30+02:00</time>
      </trkpt>
      <trkpt lat="48.11593" lon="3.31049">
        <ele>93</ele>
        <time>2020-10-03T09:57:35+02:00</time>
      </trkpt>
      <trkpt lat="48.11602" lon="3.31018">
        <ele>92</ele>
        <time>2020-10-03T09:57:40+02:00</time>
      </trkpt>
      <trkpt lat="48.1158" lon="3.31004">
        <ele>92</ele>
        <time>2020-10-03T09:57:45+02:00</time>
      </trkpt>
      <trkpt lat="48.11564" lon="3.30996">
        <ele>93</ele>
        <time>2020-10-03T09:57:50+02:00</time>
      </trkpt>
      <trkpt lat="48.11537" lon="3.30983">
        <ele>94</ele>
        <time>2020-10-03T09:57:55+02:00</time>
      </trkpt>
      <trkpt lat="48.11504" lon="3.30966">
        <ele>96</ele>
        <time>2020-10-03T09:58:00+02:00</time>
      </trkpt>
      <trkpt lat="48.11484" lon="3.30956">
        <ele>95</ele>
        <time>2020-10-03T09:58:05+02:00</time>
      </trkpt>
      <trkpt lat="48.11466" lon="3.30947">
        <ele>95</ele>
        <time>2020-10-03T09:58:10+02:00</time>
      </trkpt>
      <trkpt lat="48.11464" lon="3.30946">
        <ele>95</ele>
        <time>2020-10-03T09:58:15+02:00</time>
      </trkpt>
      <trkpt lat="48.1144" lon="3.30934">
        <ele>95</ele>
        <time>2020-10-03T09:58:20+02:00</time>
      </trkpt>
      <trkpt lat="48.11414" lon="3.30925">
        <ele>95</ele>
        <time>2020-10-03T09:58:25+02:00</time>
      </trkpt>
      <trkpt lat="48.11402" lon="3.30922">
        <ele>95</ele>
        <time>2020-10-03T09:58:30+02:00</time>
      </trkpt>
      <trkpt lat="48.11387" lon="3.30918">
        <ele>95</ele>
        <time>2020-10-03T09:58:35+02:00</time>
      </trkpt>
      <trkpt lat="48.11378" lon="3.30912">
        <ele>95</ele>
        <time>2020-10-03T09:58:40+02:00</time>
      </trkpt>
      <trkpt lat="48.11375" lon="3.30908">
        <ele>95</ele>
        <time>2020-10-03T09:58:45+02:00</time>
      </trkpt>
      <trkpt lat="48.11365" lon="3.30897">
        <ele>95</ele>
        <time>2020-10-03T09:58:50+02:00</time>
      </trkpt>
      <trkpt lat="48.11351" lon="3.30884">
        <ele>95</ele>
        <time>2020-10-03T09:58:55+02:00</time>
      </trkpt>
      <trkpt lat="48.11326" lon="3.3086">
        <ele>95</ele>
        <time>2020-10-03T09:59:00+02:00</time>
      </trkpt>
      <trkpt lat="48.11309" lon="3.30842">
        <ele>95</ele>
        <time>2020-10-03T09:59:05+02:00</time>
      </trkpt>
      <trkpt lat="48.11284" lon="3.30816">
        <ele>95</ele>
        <time>2020-10-03T09:59:10+02:00</time>
      </trkpt>
      <trkpt lat="48.11255" lon="3.30788">
        <ele>96</ele>
        <time>2020-10-03T09:59:15+02:00</time>
      </trkpt>
      <trkpt lat="48.11237" lon="3.30769">
        <ele>97</ele>
        <time>2020-10-03T09:59:20+02:00</time>
      </trkpt>
      <trkpt lat="48.11219" lon="3.3075">
        <ele>97</ele>
        <time>2020-10-03T09:59:25+02:00</time>
      </trkpt>
      <trkpt lat="48.11192" lon="3.30724">
        <ele>97</ele>
        <time>2020-10-03T09:59:30+02:00</time>
      </trkpt>
      <trkpt lat="48.11191" lon="3.30722">
        <ele>97</ele>
        <time>2020-10-03T09:59:35+02:00</time>
      </trkpt>
      <trkpt lat="48.11181" lon="3.30744">
        <ele>97</ele>
        <time>2020-10-03T09:59:40+02:00</time>
      </trkpt>
      <trkpt lat="48.11163" lon="3.30789">
        <ele>100</ele>
        <time>2020-10-03T09:59:45+02:00</time>
      </trkpt>
      <trkpt lat="48.11144" lon="3.30832">
        <ele>102</ele>
        <time>2020-10-03T09:59:50+02:00</time>
      </trkpt>
      <trkpt lat="48.11125" lon="3.30876">
        <ele>105</ele>
        <time>2020-10-03T09:59:55+02:00</time>
      </trkpt>
      <trkpt lat="48.11107" lon="3.30921">
        <ele>107</ele>
        <time>2020-10-03T10:00:00+02:00</time>
      </trkpt>
      <trkpt lat="48.11092" lon="3.30955">
        <ele>110</ele>
        <time>2020-10-03T10:00:05+02:00</time>
      </trkpt>
      <trkpt lat="48.11078" lon="3.30983">
        <ele>112</ele>
        <time>2020-10-03T10:00:10+02:00</time>
      </trkpt>
      <trkpt lat="48.11067" lon="3.31003">
        <ele>114</ele>
        <time>2020-10-03T10:00:15+02:00</time>
      </trkpt>
      <trkpt lat="48.11051" lon="3.31031">
        <ele>116</ele>
        <time>2020-10-03T10:00:20+02:00</time>
      </trkpt>
      <trkpt lat="48.11029" lon="3.31067">
        <ele>119</ele>
        <time>2020-10-03T10:00:25+02:00</time>
      </trkpt>
      <trkpt lat="48.11004" lon="3.31113">
        <ele>123</ele>
        <time>2020-10-03T10:00:30+02:00</time>
      </trkpt>
      <trkpt lat="48.11001" lon="3.31115">
        <ele>123</ele>
        <time>2020-10-03T10:00:35+02:00</time>
      </trkpt>
      <trkpt lat="48.10984" lon="3.31096">
        <ele>125</ele>
        <time>2020-10-03T10:00:40+02:00</time>
      </trkpt>
      <trkpt lat="48.1097" lon="3.3108">
        <ele>128</ele>
        <time>2020-10-03T10:00:45+02:00</time>
      </trkpt>
      <trkpt lat="48.1096" lon="3.31063">
        <ele>129</ele>
        <time>2020-10-03T10:00:50+02:00</time>
      </trkpt>
      <trkpt lat="48.10938" lon="3.31024">
        <ele>132</ele>
        <time>2020-10-03T10:00:55+02:00</time>
      </trkpt>
      <trkpt lat="48.10921" lon="3.30985">
        <ele>134</ele>
        <time>2020-10-03T10:01:00+02:00</time>
      </trkpt>
      <trkpt lat="48.10906" lon="3.30953">
        <ele>133</ele>
        <time>2020-10-03T10:01:05+02:00</time>
      </trkpt>
      <trkpt lat="48.10896" lon="3.30934">
        <ele>133</ele>
        <time>2020-10-03T10:01:10+02:00</time>
      </trkpt>
      <trkpt lat="48.10884" lon="3.30907">
        <ele>132</ele>
        <time>2020-10-03T10:01:15+02:00</time>
      </trkpt>
      <trkpt lat="48.1088" lon="3.30901">
        <ele>131</ele>
        <time>2020-10-03T10:01:20+02:00</time>
      </trkpt>
      <trkpt lat="48.10874" lon="3.30898">
        <ele>132</ele>
        <time>2020-10-03T10:01:25+02:00</time>
      </trkpt>
      <trkpt lat="48.10854" lon="3.30916">
        <ele>136</ele>
        <time>2020-10-03T10:01:30+02:00</time>
      </trkpt>
      <trkpt lat="48.10817" lon="3.30947">
        <ele>141</ele>
        <time>2020-10-03T10:01:35+02:00</time>
      </trkpt>
      <trkpt lat="48.10769" lon="3.30988">
        <ele>149</ele>
        <time>2020-10-03T10:01:40+02:00</time>
      </trkpt>
      <trkpt lat="48.10737" lon="3.31014">
        <ele>154</ele>
        <time>2020-10-03T10:01:45+02:00</time>
      </trkpt>
      <trkpt lat="48.1072" lon="3.31029">
        <ele>155</ele>
        <time>2020-10-03T10:01:50+02:00</time>
      </trkpt>
      <trkpt lat="48.10702" lon="3.31046">
        <ele>157</ele>
        <time>2020-10-03T10:01:55+02:00</time>
      </trkpt>
      <trkpt lat="48.10683" lon="3.31071">
        <ele>159</ele>
        <time>2020-10-03T10:02:00+02:00</time>
      </trkpt>
      <trkpt lat="48.10669" lon="3.3109">
        <ele>160</ele>
        <time>2020-10-03T10:02:05+02:00</time>
      </trkpt>
      <trkpt lat="48.10662" lon="3.31097">
        <ele>160</ele>
        <time>2020-10-03T10:02:10+02:00</time>
      </trkpt>
      <trkpt lat="48.10657" lon="3.31095">
        <ele>160</ele>
        <time>2020-10-03T10:02:15+02:00</time>
      </trkpt>
      <trkpt lat="48.10651" lon="3.31085">
        <ele>160</ele>
        <time>2020-10-03T10:02:20+02:00</time>
      </trkpt>
      <trkpt lat="48.10644" lon="3.31069">
        <ele>160</ele>
        <time>2020-10-03T10:02:25+02:00</time>
      </trkpt>
      <trkpt lat="48.10636" lon="3.3105">
        <ele>160</ele>
        <time>2020-10-03T10:02:30+02:00</time>
      </trkpt>
      <trkpt lat="48.10627" lon="3.3103">
        <ele>159</ele>
        <time>2020-10-03T10:02:35+02:00</time>
      </trkpt>
      <trkpt lat="48.10616" lon="3.31004">
        <ele>159</ele>
        <time>2020-10-03T10:02:40+02:00</time>
      </trkpt>
      <trkpt lat="48.10603" lon="3.30977">
        <ele>159</ele>
        <time>2020-10-03T10:02:45+02:00</time>
      </trkpt>
      <trkpt lat="48.1059" lon="3.30947">
        <ele>158</ele>
        <time>2020-10-03T10:02:50+02:00</time>
      </trkpt>
      <trkpt lat="48.10587" lon="3.30942">
        <ele>158</ele>
        <time>2020-10-03T10:02:55+02:00</time>
      </trkpt>
      <trkpt lat="48.10576" lon="3.30938">
        <ele>159</ele>
        <time>2020-10-03T10:03:00+02:00</time>
      </trkpt>
      <trkpt lat="48.1056" lon="3.3094">
        <ele>160</ele>
        <time>2020-10-03T10:03:05+02:00</time>
      </trkpt>
      <trkpt lat="48.10537" lon="3.30943">
        <ele>161</ele>
        <time>2020-10-03T10:03:10+02:00</time>
      </trkpt>
      <trkpt lat="48.10513" lon="3.30945">
        <ele>162</ele>
        <time>2020-10-03T10:03:15+02:00</time>
      </trkpt>
      <trkpt lat="48.10484" lon="3.30946">
        <ele>163</ele>
        <time>2020-10-03T10:03:20+02:00</time>
      </trkpt>
      <trkpt lat="48.10462" lon="3.30948">
        <ele>164</ele>
        <time>2020-10-03T10:03:25+02:00</time>
      </trkpt>
      <trkpt lat="48.10445" lon="3.30947">
        <ele>165</ele>
        <time>2020-10-03T10:03:30+02:00</time>
      </trkpt>
      <trkpt lat="48.1043" lon="3.30947">
        <ele>165</ele>
        <time>2020-10-03T10:03:35+02:00</time>
      </trkpt>
      <trkpt lat="48.10419" lon="3.30928">
        <ele>166</ele>
        <time>2020-10-03T10:03:40+02:00</time>
      </trkpt>
      <trkpt lat="48.1041" lon="3.30914">
        <ele>165</ele>
        <time>2020-10-03T10:03:45+02:00</time>
      </trkpt>
      <trkpt lat="48.104" lon="3.30897">
        <ele>165</ele>
        <time>2020-10-03T10:03:50+02:00</time>
      </trkpt>
      <trkpt lat="48.10387" lon="3.30883">
        <ele>164</ele>
        <time>2020-10-03T10:03:55+02:00</time>
      </trkpt>
      <trkpt lat="48.10372" lon="3.30868">
        <ele>164</ele>
        <time>2020-10-03T10:04:00+02:00</time>
      </trkpt>
      <trkpt lat="48.10353" lon="3.30846">
        <ele>164</ele>
        <time>2020-10-03T10:04:05+02:00</time>
      </trkpt>
      <trkpt lat="48.10334" lon="3.30822">
        <ele>165</ele>
        <time>2020-10-03T10:04:10+02:00</time>
      </trkpt>
      <trkpt lat="48.10325" lon="3.30812">
        <ele>164</ele>
        <time>2020-10-03T10:04:15+02:00</time>
      </trkpt>
      <trkpt lat="48.10308" lon="3.30791">
        <ele>163</ele>
        <time>2020-10-03T10:04:20+02:00</time>
      </trkpt>
      <trkpt lat="48.1029" lon="3.30768">
        <ele>162</ele>
        <time>2020-10-03T10:04:25+02:00</time>
      </trkpt>
      <trkpt lat="48.10274" lon="3.30752">
        <ele>160</ele>
        <time>2020-10-03T10:04:30+02:00</time>
      </trkpt>
      <trkpt lat="48.10249" lon="3.30738">
        <ele>158</ele>
        <time>2020-10-03T10:04:35+02:00</time>
      </trkpt>
      <trkpt lat="48.10229" lon="3.30728">
        <ele>157</ele>
        <time>2020-10-03T10:04:40+02:00</time>
      </trkpt>
      <trkpt lat="48.10219" lon="3.30725">
        <ele>156</ele>
        <time>2020-10-03T10:04:45+02:00</time>
      </trkpt>
      <trkpt lat="48.10208" lon="3.3072">
        <ele>156</ele>
        <time>2020-10-03T10:04:50+02:00</time>
      </trkpt>
      <trkpt lat="48.10188" lon="3.30714">
        <ele>154</ele>
        <time>2020-10-03T10:04:55+02:00</time>
      </trkpt>
      <trkpt lat="48.10164" lon="3.30707">
        <ele>153</ele>
        <time>2020-10-03T10:05:00+02:00</time>
      </trkpt>
      <trkpt lat="48.10142" lon="3.30695">
        <ele>151</ele>
        <time>2020-10-03T10:05:05+02:00</time>
      </trkpt>
      <trkpt lat="48.10127" lon="3.30681">
        <ele>150</ele>
        <time>2020-10-03T10:05:10+02:00</time>
      </trkpt>
      <trkpt lat="48.101" lon="3.30661">
        <ele>147</ele>
        <time>2020-10-03T10:05:15+02:00</time>
      </trkpt>
      <trkpt lat="48.10073" lon="3.30642">
        <ele>144</ele>
        <time>2020-10-03T10:05:20+02:00</time>
      </trkpt>
      <trkpt lat="48.10052" lon="3.30628">
        <ele>142</ele>
        <time>2020-10-03T10:05:25+02:00</time>
      </trkpt>
      <trkpt lat="48.10029" lon="3.30615">
        <ele>140</ele>
        <time>2020-10-03T10:05:30+02:00</time>
      </trkpt>
      <trkpt lat="48.10016" lon="3.30607">
        <ele>138</ele>
        <time>2020-10-03T10:05:35+02:00</time>
      </trkpt>
      <trkpt lat="48.1" lon="3.30608">
        <ele>136</ele>
        <time>2020-10-03T10:05:40+02:00</time>
      </trkpt>
      <trkpt lat="48.09964" lon="3.30611">
        <ele>133</ele>
        <time>2020-10-03T10:05:45+02:00</time>
      </trkpt>
      <trkpt lat="48.09944" lon="3.3061">
        <ele>131</ele>
        <time>2020-10-03T10:05:50+02:00</time>
      </trkpt>
      <trkpt lat="48.09928" lon="3.30609">
        <ele>129</ele>
        <time>2020-10-03T10:05:55+02:00</time>
      </trkpt>
      <trkpt lat="48.09907" lon="3.30604">
        <ele>127</ele>
        <time>2020-10-03T10:06:00+02:00</time>
      </trkpt>
      <trkpt lat="48.09893" lon="3.30601">
        <ele>126</ele>
        <time>2020-10-03T10:06:05+02:00</time>
      </trkpt>
      <trkpt lat="48.09878" lon="3.30599">
        <ele>124</ele>
        <time>2020-10-03T10:06:10+02:00</time>
      </trkpt>
      <trkpt lat="48.09855" lon="3.30596">
        <ele>122</ele>
        <time>2020-10-03T10:06:15+02:00</time>
      </trkpt>
      <trkpt lat="48.09834" lon="3.30595">
        <ele>119</ele>
        <time>2020-10-03T10:06:20+02:00</time>
      </trkpt>
      <trkpt lat="48.09824" lon="3.30594">
        <ele>118</ele>
        <time>2020-10-03T10:06:25+02:00</time>
      </trkpt>
      <trkpt lat="48.09809" lon="3.30595">
        <ele>116</ele>
        <time>2020-10-03T10:06:30+02:00</time>
      </trkpt>
      <trkpt lat="48.09789" lon="3.30592">
        <ele>113</ele>
        <time>2020-10-03T10:06:35+02:00</time>
      </trkpt>
      <trkpt lat="48.09773" lon="3.30584">
        <ele>111</ele>
        <time>2020-10-03T10:06:40+02:00</time>
      </trkpt>
      <trkpt lat="48.09764" lon="3.30581">
        <ele>110</ele>
        <time>2020-10-03T10:06:45+02:00</time>
      </trkpt>
      <trkpt lat="48.09744" lon="3.30568">
        <ele>107</ele>
        <time>2020-10-03T10:06:50+02:00</time>
      </trkpt>
      <trkpt lat="48.09727" lon="3.30564">
        <ele>104</ele>
        <time>2020-10-03T10:06:55+02:00</time>
      </trkpt>
      <trkpt lat="48.09699" lon="3.30566">
        <ele>101</ele>
        <time>2020-10-03T10:07:00+02:00</time>
      </trkpt>
      <trkpt lat="48.09672" lon="3.30566">
        <ele>97</ele>
        <time>2020-10-03T10:07:05+02:00</time>
      </trkpt>
      <trkpt lat="48.09641" lon="3.30568">
        <ele>94</ele>
        <time>2020-10-03T10:07:10+02:00</time>
      </trkpt>
      <trkpt lat="48.09611" lon="3.30568">
        <ele>91</ele>
        <time>2020-10-03T10:07:15+02:00</time>
      </trkpt>
      <trkpt lat="48.09586" lon="3.30569">
        <ele>88</ele>
        <time>2020-10-03T10:07:20+02:00</time>
      </trkpt>
      <trkpt lat="48.09564" lon="3.30569">
        <ele>87</ele>
        <time>2020-10-03T10:07:25+02:00</time>
      </trkpt>
      <trkpt lat="48.09537" lon="3.3057">
        <ele>85</ele>
        <time>2020-10-03T10:07:30+02:00</time>
      </trkpt>
      <trkpt lat="48.09513" lon="3.30569">
        <ele>83</ele>
        <time>2020-10-03T10:07:35+02:00</time>
      </trkpt>
      <trkpt lat="48.09488" lon="3.30571">
        <ele>82</ele>
        <time>2020-10-03T10:07:40+02:00</time>
      </trkpt>
      <trkpt lat="48.09462" lon="3.30574">
        <ele>81</ele>
        <time>2020-10-03T10:07:45+02:00</time>
      </trkpt>
      <trkpt lat="48.09445" lon="3.30575">
        <ele>80</ele>
        <time>2020-10-03T10:07:50+02:00</time>
      </trkpt>
      <trkpt lat="48.09442" lon="3.30626">
        <ele>80</ele>
        <time>2020-10-03T10:07:55+02:00</time>
      </trkpt>
      <trkpt lat="48.09439" lon="3.30685">
        <ele>80</ele>
        <time>2020-10-03T10:08:00+02:00</time>
      </trkpt>
      <trkpt lat="48.09435" lon="3.30756">
        <ele>79</ele>
        <time>2020-10-03T10:08:05+02:00</time>
      </trkpt>
      <trkpt lat="48.09429" lon="3.30839">
        <ele>78</ele>
        <time>2020-10-03T10:08:10+02:00</time>
      </trkpt>
      <trkpt lat="48.0943" lon="3.30859">
        <ele>78</ele>
        <time>2020-10-03T10:08:15+02:00</time>
      </trkpt>
      <trkpt lat="48.09427" lon="3.30885">
        <ele>78</ele>
        <time>2020-10-03T10:08:20+02:00</time>
      </trkpt>
      <trkpt lat="48.09424" lon="3.30934">
        <ele>78</ele>
        <time>2020-10-03T10:08:25+02:00</time>
      </trkpt>
      <trkpt lat="48.09419" lon="3.30971">
        <ele>78</ele>
        <time>2020-10-03T10:08:30+02:00</time>
      </trkpt>
      <trkpt lat="48.09403" lon="3.30962">
        <ele>78</ele>
        <time>2020-10-03T10:08:35+02:00</time>
      </trkpt>
      <trkpt lat="48.09389" lon="3.30957">
        <ele>79</ele>
        <time>2020-10-03T10:08:40+02:00</time>
      </trkpt>
      <trkpt lat="48.09368" lon="3.30951">
        <ele>79</ele>
        <time>2020-10-03T10:08:45+02:00</time>
      </trkpt>
      <trkpt lat="48.09355" lon="3.30945">
        <ele>80</ele>
        <time>2020-10-03T10:08:50+02:00</time>
      </trkpt>
      <trkpt lat="48.0934" lon="3.30934">
        <ele>80</ele>
        <time>2020-10-03T10:08:55+02:00</time>
      </trkpt>
      <trkpt lat="48.09335" lon="3.30923">
        <ele>80</ele>
        <time>2020-10-03T10:09:00+02:00</time>
      </trkpt>
      <trkpt lat="48.09333" lon="3.30912">
        <ele>80</ele>
        <time>2020-10-03T10:09:05+02:00</time>
      </trkpt>
      <trkpt lat="48.09333" lon="3.30885">
        <ele>80</ele>
        <time>2020-10-03T10:09:10+02:00</time>
      </trkpt>
      <trkpt lat="48.0933" lon="3.30869">
        <ele>80</ele>
        <time>2020-10-03T10:09:15+02:00</time>
      </trkpt>
      <trkpt lat="48.09333" lon="3.3083">
        <ele>80</ele>
        <time>2020-10-03T10:09:20+02:00</time>
      </trkpt>
      <trkpt lat="48.09335" lon="3.30792">
        <ele>79</ele>
        <time>2020-10-03T10:09:25+02:00</time>
      </trkpt>
      <trkpt lat="48.09332" lon="3.3072">
        <ele>79</ele>
        <time>2020-10-03T10:09:30+02:00</time>
      </trkpt>
      <trkpt lat="48.09329" lon="3.30688">
        <ele>80</ele>
        <time>2020-10-03T10:09:35+02:00</time>
      </trkpt>
      <trkpt lat="48.09319" lon="3.30666">
        <ele>79</ele>
        <time>2020-10-03T10:09:40+02:00</time>
      </trkpt>
      <trkpt lat="48.09316" lon="3.3066">
        <ele>79</ele>
        <time>2020-10-03T10:09:45+02:00</time>
      </trkpt>
      <trkpt lat="48.09301" lon="3.30662">
        <ele>79</ele>
        <time>2020-10-03T10:09:50+02:00</time>
      </trkpt>
      <trkpt lat="48.09294" lon="3.30663">
        <ele>79</ele>
        <time>2020-10-03T10:09:55+02:00</time>
      </trkpt>
      <trkpt lat="48.09286" lon="3.3066">
        <ele>78</ele>
        <time>2020-10-03T10:10:00+02:00</time>
      </trkpt>
      <trkpt lat="48.09254" lon="3.30648">
        <ele>77</ele>
        <time>2020-10-03T10:10:05+02:00</time>
      </trkpt>
      <trkpt lat="48.09228" lon="3.30627">
        <ele>77</ele>
        <time>2020-10-03T10:10:10+02:00</time>
      </trkpt>
      <trkpt lat="48.09194" lon="3.30591">
        <ele>78</ele>
        <time>2020-10-03T10:10:15+02:00</time>
      </trkpt>
      <trkpt lat="48.09164" lon="3.30561">
        <ele>78</ele>
        <time>2020-10-03T10:10:20+02:00</time>
      </trkpt>
      <trkpt lat="48.09148" lon="3.30542">
        <ele>78</ele>
        <time>2020-10-03T10:10:25+02:00</time>
      </trkpt>
      <trkpt lat="48.09126" lon="3.30514">
        <ele>77</ele>
        <time>2020-10-03T10:10:30+02:00</time>
      </trkpt>
      <trkpt lat="48.09099" lon="3.30478">
        <ele>76</ele>
        <time>2020-10-03T10:10:35+02:00</time>
      </trkpt>
      <trkpt lat="48.09072" lon="3.30436">
        <ele>76</ele>
        <time>2020-10-03T10:10:40+02:00</time>
      </trkpt>
      <trkpt lat="48.09062" lon="3.30415">
        <ele>76</ele>
        <time>2020-10-03T10:10:45+02:00</time>
      </trkpt>
      <trkpt lat="48.09052" lon="3.30393">
        <ele>76</ele>
        <time>2020-10-03T10:10:50+02:00</time>
      </trkpt>
      <trkpt lat="48.09034" lon="3.30351">
        <ele>75</ele>
        <time>2020-10-03T10:10:55+02:00</time>
      </trkpt>
      <trkpt lat="48.09023" lon="3.30327">
        <ele>75</ele>
        <time>2020-10-03T10:11:00+02:00</time>
      </trkpt>
      <trkpt lat="48.0901" lon="3.3031">
        <ele>74</ele>
        <time>2020-10-03T10:11:05+02:00</time>
      </trkpt>
      <trkpt lat="48.08994" lon="3.30279">
        <ele>74</ele>
        <time>2020-10-03T10:11:10+02:00</time>
      </trkpt>
      <trkpt lat="48.08979" lon="3.30242">
        <ele>74</ele>
        <time>2020-10-03T10:11:15+02:00</time>
      </trkpt>
      <trkpt lat="48.08972" lon="3.30221">
        <ele>74</ele>
        <time>2020-10-03T10:11:20+02:00</time>
      </trkpt>
      <trkpt lat="48.08962" lon="3.30201">
        <ele>74</ele>
        <time>2020-10-03T10:11:25+02:00</time>
      </trkpt>
      <trkpt lat="48.08952" lon="3.30193">
        <ele>75</ele>
        <time>2020-10-03T10:11:30+02:00</time>
      </trkpt>
      <trkpt lat="48.08938" lon="3.30192">
        <ele>75</ele>
        <time>2020-10-03T10:11:35+02:00</time>
      </trkpt>
      <trkpt lat="48.08914" lon="3.30194">
        <ele>76</ele>
        <time>2020-10-03T10:11:40+02:00</time>
      </trkpt>
      <trkpt lat="48.08905" lon="3.30198">
        <ele>77</ele>
        <time>2020-10-03T10:11:45+02:00</time>
      </trkpt>
      <trkpt lat="48.08901" lon="3.30184">
        <ele>77</ele>
        <time>2020-10-03T10:11:50+02:00</time>
      </trkpt>
      <trkpt lat="48.08895" lon="3.3017">
        <ele>77</ele>
        <time>2020-10-03T10:11:55+02:00</time>
      </trkpt>
      <trkpt lat="48.0888" lon="3.30147">
        <ele>77</ele>
        <time>2020-10-03T10:12:00+02:00</time>
      </trkpt>
      <trkpt lat="48.08851" lon="3.30104">
        <ele>77</ele>
        <time>2020-10-03T10:12:05+02:00</time>
      </trkpt>
      <trkpt lat="48.0881" lon="3.30045">
        <ele>76</ele>
        <time>2020-10-03T10:12:10+02:00</time>
      </trkpt>
      <trkpt lat="48.08794" lon="3.30023">
        <ele>76</ele>
        <time>2020-10-03T10:12:15+02:00</time>
      </trkpt>
      <trkpt lat="48.08768" lon="3.29985">
        <ele>75</ele>
        <time>2020-10-03T10:12:20+02:00</time>
      </trkpt>
      <trkpt lat="48.08746" lon="3.29955">
        <ele>76</ele>
        <time>2020-10-03T10:12:25+02:00</time>
      </trkpt>
      <trkpt lat="48.08721" lon="3.29926">
        <ele>76</ele>
        <time>2020-10-03T10:12:30+02:00</time>
      </trkpt>
      <trkpt lat="48.08684" lon="3.29893">
        <ele>76</ele>
        <time>2020-10-03T10:12:35+02:00</time>
      </trkpt>
      <trkpt lat="48.0865" lon="3.29868">
        <ele>77</ele>
        <time>2020-10-03T10:12:40+02:00</time>
      </trkpt>
      <trkpt lat="48.08626" lon="3.29846">
        <ele>78</ele>
        <time>2020-10-03T10:12:45+02:00</time>
      </trkpt>
      <trkpt lat="48.08614" lon="3.29828">
        <ele>78</ele>
        <time>2020-10-03T10:12:50+02:00</time>
      </trkpt>
      <trkpt lat="48.08606" lon="3.29878">
        <ele>79</ele>
        <time>2020-10-03T10:12:55+02:00</time>
      </trkpt>
      <trkpt lat="48.08598" lon="3.29931">
        <ele>79</ele>
        <time>2020-10-03T10:13:00+02:00</time>
      </trkpt>
      <trkpt lat="48.08584" lon="3.29995">
        <ele>81</ele>
        <time>2020-10-03T10:13:05+02:00</time>
      </trkpt>
      <trkpt lat="48.08582" lon="3.30009">
        <ele>81</ele>
        <time>2020-10-03T10:13:10+02:00</time>
      </trkpt>
      <trkpt lat="48.08538" lon="3.29988">
        <ele>80</ele>
        <time>2020-10-03T10:13:15+02:00</time>
      </trkpt>
      <trkpt lat="48.08512" lon="3.29976">
        <ele>80</ele>
        <time>2020-10-03T10:13:20+02:00</time>
      </trkpt>
      <trkpt lat="48.08483" lon="3.29963">
        <ele>79</ele>
        <time>2020-10-03T10:13:25+02:00</time>
      </trkpt>
      <trkpt lat="48.08448" lon="3.29941">
        <ele>78</ele>
        <time>2020-10-03T10:13:30+02:00</time>
      </trkpt>
      <trkpt lat="48.08437" lon="3.29929">
        <ele>77</ele>
        <time>2020-10-03T10:13:35+02:00</time>
      </trkpt>
      <trkpt lat="48.08445" lon="3.29926">
        <ele>77</ele>
        <time>2020-10-03T10:13:40+02:00</time>
      </trkpt>
      <trkpt lat="48.08451" lon="3.29921">
        <ele>77</ele>
        <time>2020-10-03T10:13:45+02:00</time>
      </trkpt>
      <trkpt lat="48.08457" lon="3.29911">
        <ele>77</ele>
        <time>2020-10-03T10:13:50+02:00</time>
      </trkpt>
      <trkpt lat="48.0846" lon="3.29897">
        <ele>77</ele>
        <time>2020-10-03T10:13:55+02:00</time>
      </trkpt>
      <trkpt lat="48.08472" lon="3.29891">
        <ele>77</ele>
        <time>2020-10-03T10:14:00+02:00</time>
      </trkpt>
      <trkpt lat="48.08482" lon="3.29882">
        <ele>77</ele>
        <time>2020-10-03T10:14:05+02:00</time>
      </trkpt>
      <trkpt lat="48.08489" lon="3.29865">
        <ele>77</ele>
        <time>2020-10-03T10:14:10+02:00</time>
      </trkpt>
      <trkpt lat="48.08495" lon="3.29846">
        <ele>77</ele>
        <time>2020-10-03T10:14:15+02:00</time>
      </trkpt>
      <trkpt lat="48.0851" lon="3.2979">
        <ele>77</ele>
        <time>2020-10-03T10:14:20+02:00</time>
      </trkpt>
      <trkpt lat="48.08533" lon="3.29706">
        <ele>76</ele>
        <time>2020-10-03T10:14:25+02:00</time>
      </trkpt>
      <trkpt lat="48.08539" lon="3.29681">
        <ele>76</ele>
        <time>2020-10-03T10:14:30+02:00</time>
      </trkpt>
      <trkpt lat="48.0854" lon="3.29657">
        <ele>75</ele>
        <time>2020-10-03T10:14:35+02:00</time>
      </trkpt>
      <trkpt lat="48.08546" lon="3.29562">
        <ele>73</ele>
        <time>2020-10-03T10:14:40+02:00</time>
      </trkpt>
      <trkpt lat="48.08549" lon="3.29519">
        <ele>73</ele>
        <time>2020-10-03T10:14:45+02:00</time>
      </trkpt>
      <trkpt lat="48.08558" lon="3.29521">
        <ele>73</ele>
        <time>2020-10-03T10:14:50+02:00</time>
      </trkpt>
      <trkpt lat="48.08566" lon="3.29423">
        <ele>74</ele>
        <time>2020-10-03T10:14:55+02:00</time>
      </trkpt>
      <trkpt lat="48.08577" lon="3.29321">
        <ele>70</ele>
        <time>2020-10-03T10:15:00+02:00</time>
      </trkpt>
      <trkpt lat="48.08568" lon="3.29294">
        <ele>69</ele>
        <time>2020-10-03T10:15:05+02:00</time>
      </trkpt>
    </trkseg>
  </trk>
</gpx>